Nottingham - eastern half: Past 24 Hour Conditions

 

Pond Inlet Airport

06:00 AM EDT 25 October 2014
This table is a summary of hourly weather conditions for the past 24 hours.
Date / Time
(EDT)
Wind(knots) Conditions Visibility(km) Pressure(kPa) Air tempC) Relative humidity(%) Dew pointC) Wind Chill
25 October 2014
6:00 W 13 Cloudy 16 102.1 -13 72 -17 -22
5:00 WNW 12 gust 19 Cloudy 16 102.1 -13 72 -17 -22
4:00 W 16 gust 22 Cloudy 16 102.1 -13 70 -17 -23
3:00 W 18 gust 25 Mostly Cloudy 16 102.0 -13 69 -18 -24
2:00 WNW 17 gust 22 Cloudy 16 102.0 -13 67 -18 -24
1:00 W 19 gust 29 Mostly Cloudy 16 102.0 -13 72 -17 -24
0:00 W 18 gust 26 Mostly Cloudy 16 101.9 -13 70 -17 -24
24 October 2014
23:00 W 24 gust 31 Cloudy 16 101.9 -13 67 -17 -25
22:00 W 23 gust 30 Mostly Cloudy 16 101.9 -13 69 -17 -25
21:00 W 24 gust 30 Cloudy 16 101.9 -13 68 -17 -25
20:00 WSW 24 gust 33 Partly Cloudy 16 101.8 -13 70 -17 -25
19:00 W 27 gust 34 Light Snow 19 101.8 -13 74 -16 -25
18:00 W 26 gust 30 Light Snow 11 101.8 -13 79 -16 -25
17:00 W 25 gust 33 Mostly Cloudy 19 101.7 -12 68 -17 -24
16:00 W 25 gust 35 Partly Cloudy 24 101.6 -12 75 -15 -24
15:00 W 25 gust 33 Partly Cloudy 24 101.6 -12 67 -17 -24
14:00 W 27 gust 34 Partly Cloudy 24 101.6 -12 67 -17 -24
13:00 W 28 gust 37 Partly Cloudy 24 101.5 -12 68 -16 -24
12:00 WSW 22 gust 28 Mostly Cloudy 24 101.5 -11 69 -16 -22
11:00 W 22 gust 33 Partly Cloudy 24 101.5 -11 67 -16 -22
10:00 WSW 28 gust 35 Mainly Sunny 16 101.5 -11 66 -17 -24
9:00 W 23 gust 30 Partly Cloudy 16 101.5 -12 68 -17 -24
8:00 W 22 gust 30 Clear 16 101.5 -12 68 -17 -23
7:00 W 20 gust 25 Clear 16 101.5 -12 70 -16 -23
6:00 W 15 gust 22 Cloudy 16 101.5 -11 69 -16 -21
 
Map of Arctic - Eastern Arctic marine weather areas Baker Lake Airport Chesterfield Inlet Airport Coral Harbour Airport Gjoa Haven Airport Kugaaruk Airport Rankin Inlet Airport Shepherd Bay Airport Whale Cove Airport Arctic Bay Brevoort Island Qikiqtarjuaq Airport Cape Dorset Airport Cape Dyer Cape Hooper Clyde Airport Grise Fiord Airport Hall Beach Airport Igloolik Airport Iqaluit Airport Longstaff Bluff Pangnirtung Airport Pond Inlet Airport Repulse Bay Airport Resolute Airport Resolution Island Rowley Island Airport Taloyoak Airport Wager Bay Akulivik Airport Ivujivik Airport Puvirnituq Airport Kangiqsujuaq Airport Kangirsuk Airport Quaqtaq Airport Tasiujaq Airport Cape Kakkiviak Cape Kiglapait Nain Airport Saglek Cape Mercy Kimmirut Airport Aupaluk Airport Salluit Airport Kangiqsualujjuaq Airport Fort Ross
Legend: buoyBuoy land stationLand Station